Time;durP1;ratioP1;P1;durP2;ratioP2;P2;SDS_P1;SDS_P2;PMS_P1;PMS_P2;Temp;Humidity;BMP_temperature;BMP_pressure;BME280_temperature;BME280_humidity;BME280_pressure;Samples;Min_cycle;Max_cycle;Signal;HPM_P1;HPM_P2
2022/07/12 05:17:41;;;;;;;;;;;;;;;9.14;90.65;100368.66;6184075;23;20309;-85
2022/07/12 05:20:06;;;;;;;;;;;;;;;8.80;88.60;100369.56;6186008;23;20271;-86
2022/07/12 05:22:31;;;;;;;;;;;;;;;9.27;91.53;100370.06;6186036;23;20201;-89
2022/07/12 05:24:57;;;;;;;;;;;;;;;9.04;89.49;100367.19;6184472;23;19923;-86
2022/07/12 05:27:24;;;;;;;;;;;;;;;9.33;92.64;100366.38;6186008;23;19926;-86
2022/07/12 05:29:49;;;;;;;;;;;;;;;9.14;91.30;100373.94;6184253;23;19912;-85
2022/07/12 05:32:15;;;;;;;;;;;;;;;9.43;93.56;100369.66;6159566;23;19924;-85
2022/07/12 05:34:40;;;;;;;;;;;;;;;9.16;92.25;100376.56;6186254;23;19945;-85
2022/07/12 05:37:08;;;;;;;;;;;;;;;9.52;93.80;100379.94;6186031;23;19939;-87
2022/07/12 05:39:36;;;;;;;;;;;;;;;9.34;91.78;100377.84;6186247;23;19952;-90
2022/07/12 05:42:09;;;;;;;;;;;;;;;9.58;93.26;100382.41;6184607;23;19951;-93
2022/07/12 05:44:37;;;;;;;;;;;;;;;9.33;92.66;100390.16;6184719;23;19919;-87
2022/07/12 05:47:03;;;;;;;;;;;;;;;9.49;93.69;100393.25;6185664;23;20391;-86
2022/07/12 05:49:31;;;;;;;;;;;;;;;9.41;93.12;100392.59;6185662;23;19999;-86
2022/07/12 05:54:42;;;;;;;;;;;;;;;9.44;93.09;100398.69;6185772;23;19935;-88
2022/07/12 05:57:14;;;;;;;;;;;;;;;9.37;93.12;100404.19;6185441;23;19923;-89
2022/07/12 05:59:40;;;;;;;;;;;;;;;9.61;93.66;100399.97;6182498;23;19927;-89
2022/07/12 06:02:06;;;;;;;;;;;;;;;9.52;93.43;100395.81;6185839;23;19912;-88
2022/07/12 06:04:31;;;;;;;;;;;;;;;9.65;94.46;100398.97;6185530;23;19912;-89
2022/07/12 06:06:56;;;;;;;;;;;;;;;9.46;94.29;100395.97;6185810;23;19935;-89
2022/07/12 06:09:22;;;;;;;;;;;;;;;9.54;95.14;100398.41;6183993;23;19943;-89
2022/07/12 06:11:47;;;;;;;;;;;;;;;9.57;95.24;100396.56;6183486;23;19966;-90
2022/07/12 06:14:12;;;;;;;;;;;;;;;9.59;95.46;100399.16;6183791;23;19966;-89
2022/07/12 06:16:38;;;;;;;;;;;;;;;9.48;95.03;100404.75;6181692;23;19952;-89
2022/07/12 06:19:05;;;;;;;;;;;;;;;9.59;95.79;100396.53;6183648;23;19951;-89
2022/07/12 06:24:51;;;;;;;;;;;;;;;9.61;95.96;100406.13;6126842;23;19964;-89
2022/07/12 06:27:16;;;;;;;;;;;;;;;9.48;93.86;100404.75;6185345;23;19916;-89
2022/07/12 06:29:44;;;;;;;;;;;;;;;9.73;95.75;100404.03;6183798;23;20384;-90
2022/07/12 06:32:09;;;;;;;;;;;;;;;9.56;93.54;100397.47;6185126;23;19916;-87
2022/07/12 06:34:36;;;;;;;;;;;;;;;9.82;95.41;100398.47;6185570;23;19990;-89
2022/07/12 06:37:01;;;;;;;;;;;;;;;9.60;93.93;100399.09;6184970;23;19987;-90
2022/07/12 06:39:26;;;;;;;;;;;;;;;9.79;95.54;100402.06;6185322;23;19998;-89
2022/07/12 06:41:52;;;;;;;;;;;;;;;9.67;94.14;100405.09;6185206;23;19967;-89
2022/07/12 06:44:17;;;;;;;;;;;;;;;9.88;95.34;100397.44;6185129;23;19948;-89
2022/07/12 06:46:43;;;;;;;;;;;;;;;9.62;93.90;100397.28;6182149;23;19912;-88
2022/07/12 06:49:08;;;;;;;;;;;;;;;9.86;94.96;100401.88;6185377;23;19921;-88
2022/07/12 06:51:33;;;;;;;;;;;;;;;9.74;93.85;100406.63;6185277;23;19965;-89
2022/07/12 06:53:58;;;;;;;;;;;;;;;9.84;94.95;100412.53;6159372;23;19916;-89
2022/07/12 07:57:10;;;;;;;;;;;;;;;9.77;94.78;100440.09;6155012;23;20016;-92
2022/07/12 08:02:29;;;;;;;;;;;;;;;9.96;95.22;100437.78;6269551;22;19919;-93
2022/07/12 08:07:57;;;;;;;;;;;;;;;10.04;95.56;100429.59;6244689;22;20258;-90
2022/07/12 08:10:23;;;;;;;;;;;;;;;9.78;93.59;100428.56;6218277;23;19920;-86
2022/07/12 08:12:48;;;;;;;;;;;;;;;9.99;95.16;100425.31;6217948;23;20312;-89
2022/07/12 08:15:14;;;;;;;;;;;;;;;9.89;93.43;100426.50;6244841;23;19919;-91
2022/07/12 08:17:39;;;;;;;;;;;;;;;9.94;95.00;100429.88;6244916;23;19918;-91
2022/07/12 08:20:05;;;;;;;;;;;;;;;9.55;93.92;100440.69;6244108;23;20339;-87
2022/07/12 08:22:30;;;;;;;;;;;;;;;9.86;95.34;100431.00;6204543;23;19919;-89
2022/07/12 08:24:57;;;;;;;;;;;;;;;9.64;92.80;100443.09;6241595;23;19985;-87
2022/07/12 08:27:23;;;;;;;;;;;;;;;10.02;94.43;100432.31;6243461;23;19920;-87
2022/07/12 08:29:49;;;;;;;;;;;;;;;9.71;92.41;100429.69;6242988;23;19946;-88
2022/07/12 08:35:35;;;;;;;;;;;;;;;9.80;93.15;100426.78;6231170;22;19965;-90
2022/07/12 08:38:00;;;;;;;;;;;;;;;9.74;92.44;100432.25;6241389;23;19911;-88
2022/07/12 08:40:25;;;;;;;;;;;;;;;9.98;93.93;100425.34;6245819;23;19916;-90
2022/07/12 08:42:53;;;;;;;;;;;;;;;9.80;92.26;100421.47;6219441;23;19912;-90
2022/07/12 08:45:19;;;;;;;;;;;;;;;9.98;93.56;100426.22;6246790;23;19907;-89
2022/07/12 08:48:28;;;;;;;;;;;;;;;9.85;91.29;100422.22;6244511;23;19919;-89
2022/07/12 08:51:04;;;;;;;;;;;;;;;10.19;93.35;100423.81;6243498;23;19965;-88
2022/07/12 08:53:29;;;;;;;;;;;;;;;10.05;92.09;100420.72;6243578;23;19931;-88
2022/07/12 08:55:55;;;;;;;;;;;;;;;10.23;94.39;100417.53;6245060;23;20343;-89
2022/07/12 09:01:51;;;;;;;;;;;;;;;13.94;99.19;100412.91;6173183;22;19915;-86
2022/07/12 09:04:35;;;;;;;;;;;;;;;11.39;91.79;100422.50;6245714;22;20342;-87
2022/07/12 09:07:12;;;;;;;;;;;;;;;10.48;93.00;100424.72;6246416;22;19935;-90
2022/07/12 09:10:00;;;;;;;;;;;;;;;10.53;95.81;100417.50;6244453;22;20484;-87
2022/07/12 09:12:26;;;;;;;;;;;;;;;10.24;95.50;100413.09;6245425;22;19990;-86
2022/07/12 09:14:55;;;;;;;;;;;;;;;10.13;95.67;100418.72;6244897;23;20319;-87
2022/07/12 09:17:23;;;;;;;;;;;;;;;10.17;96.10;100421.22;6245393;22;19966;-89
2022/07/12 09:20:15;;;;;;;;;;;;;;;10.24;95.70;100413.09;6244504;23;19959;-85
2022/07/12 09:23:02;;;;;;;;;;;;;;;10.28;96.49;100414.75;6242633;23;19943;-88
2022/07/12 09:25:31;;;;;;;;;;;;;;;10.19;95.10;100418.53;6244279;23;19918;-87
2022/07/12 09:27:58;;;;;;;;;;;;;;;10.40;96.90;100421.44;6245373;22;19943;-88
2022/07/12 09:30:27;;;;;;;;;;;;;;;10.23;95.19;100420.19;6244529;23;19920;-87
2022/07/12 09:36:06;;;;;;;;;;;;;;;10.44;94.42;100417.78;6245653;23;20003;-87
2022/07/12 09:38:32;;;;;;;;;;;;;;;10.13;93.25;100409.00;6244413;22;19994;-88
2022/07/12 09:41:00;;;;;;;;;;;;;;;10.34;95.12;100412.78;6243821;23;19962;-87
2022/07/12 09:43:28;;;;;;;;;;;;;;;10.10;92.96;100408.22;6245275;23;19957;-87
2022/07/12 09:45:54;;;;;;;;;;;;;;;10.33;93.81;100413.69;6244117;23;19921;-87
2022/07/12 09:48:20;;;;;;;;;;;;;;;10.21;92.80;100400.81;6244756;23;19919;-87
2022/07/12 09:50:51;;;;;;;;;;;;;;;10.55;94.59;100410.34;6244899;23;19912;-86
2022/07/12 09:53:31;;;;;;;;;;;;;;;10.23;92.83;100409.59;6244707;22;20059;-87
2022/07/12 09:55:57;;;;;;;;;;;;;;;10.47;95.05;100412.41;6244360;23;19934;-85
2022/07/12 09:58:24;;;;;;;;;;;;;;;9.99;92.81;100414.72;6246164;22;20339;-87
2022/07/12 10:00:53;;;;;;;;;;;;;;;10.42;95.22;100409.00;6244669;23;20327;-85
2022/07/12 10:03:29;;;;;;;;;;;;;;;10.12;93.85;100398.47;6244242;23;19919;-88
2022/07/12 10:05:55;;;;;;;;;;;;;;;10.25;95.50;100405.09;6243828;23;20212;-86
2022/07/12 10:08:21;;;;;;;;;;;;;;;10.40;95.50;100402.91;6245032;22;19912;-87
2022/07/12 10:10:46;;;;;;;;;;;;;;;10.09;94.76;100404.72;6244070;23;19912;-85
2022/07/12 10:13:12;;;;;;;;;;;;;;;10.14;93.60;100401.91;6243896;23;19918;-85
2022/07/12 10:18:24;;;;;;;;;;;;;;;10.31;95.40;100412.00;6245920;22;19931;-86
2022/07/12 10:20:49;;;;;;;;;;;;;;;10.15;94.43;100417.75;6243405;23;19911;-87
2022/07/12 10:23:27;;;;;;;;;;;;;;;10.22;95.80;100415.78;6258742;22;20315;-86
2022/07/12 10:25:53;;;;;;;;;;;;;;;10.17;94.58;100413.28;6275597;22;19965;-86
2022/07/12 10:28:19;;;;;;;;;;;;;;;10.56;96.80;100414.72;6275992;22;19915;-86
2022/07/12 10:31:04;;;;;;;;;;;;;;;10.20;95.21;100411.47;6248348;22;19965;-86
2022/07/12 10:33:32;;;;;;;;;;;;;;;10.25;96.42;100422.78;6248873;22;19912;-86
2022/07/12 10:36:07;;;;;;;;;;;;;;;9.99;94.21;100420.00;6248957;22;20204;-86
2022/07/12 10:38:33;;;;;;;;;;;;;;;10.19;94.32;100413.22;6248184;22;19911;-89
2022/07/12 10:41:18;;;;;;;;;;;;;;;10.05;93.70;100410.13;6248124;22;20322;-87
2022/07/12 10:46:26;;;;;;;;;;;;;;;10.18;93.63;100414.16;6274610;22;19922;-88
2022/07/12 10:49:12;;;;;;;;;;;;;;;9.81;91.11;100408.22;6246863;22;19911;-86
2022/07/12 10:51:37;;;;;;;;;;;;;;;10.27;92.86;100413.84;6247393;22;19961;-87
2022/07/12 10:54:23;;;;;;;;;;;;;;;9.95;90.17;100409.56;6273919;22;19911;-89
2022/07/12 10:56:57;;;;;;;;;;;;;;;10.05;92.34;100405.72;6275272;22;19911;-89
2022/07/12 10:59:23;;;;;;;;;;;;;;;10.00;91.72;100412.94;6248296;22;19915;-88
2022/07/12 11:01:52;;;;;;;;;;;;;;;9.94;91.77;100411.34;6275653;22;19918;-87
2022/07/12 11:04:20;;;;;;;;;;;;;;;9.91;91.71;100422.03;6274007;22;19926;-84
2022/07/12 11:06:46;;;;;;;;;;;;;;;9.88;91.31;100416.81;6247746;22;19912;-86
2022/07/12 11:09:16;;;;;;;;;;;;;;;9.92;91.66;100414.94;6274752;22;19911;-87
2022/07/12 11:11:57;;;;;;;;;;;;;;;9.94;91.14;100415.75;6247748;22;20589;-86
2022/07/12 11:14:22;;;;;;;;;;;;;;;10.30;93.62;100413.75;6247707;22;20242;-86
2022/07/12 11:16:52;;;;;;;;;;;;;;;10.03;91.41;100417.28;6248555;22;19951;-91
2022/07/12 11:19:21;;;;;;;;;;;;;;;10.16;93.41;100415.97;6274713;22;19950;-87
2022/07/12 11:21:57;;;;;;;;;;;;;;;;;;;;;
2022/07/12 11:24:23;;;;;;;;;;;;;;;9.94;93.30;100408.69;6267674;22;19922;-87
2022/07/12 11:26:52;;;;;;;;;;;;;;;9.97;91.80;100407.72;6275390;22;19916;-87
2022/07/12 11:29:25;;;;;;;;;;;;;;;10.17;93.69;100404.47;6248720;22;19916;-87
2022/07/12 11:31:59;;;;;;;;;;;;;;;10.06;93.13;100399.50;6246222;22;19922;-87
2022/07/12 11:34:26;;;;;;;;;;;;;;;9.99;93.24;100401.47;6275048;22;19950;-89
2022/07/12 11:36:55;;;;;;;;;;;;;;;10.06;93.19;100403.94;6248211;22;19907;-87
2022/07/12 11:39:35;;;;;;;;;;;;;;;10.09;92.21;100396.75;6273882;22;19923;-86
2022/07/12 11:42:01;;;;;;;;;;;;;;;10.31;93.84;100391.66;6247832;22;19918;-87
2022/07/12 11:44:45;;;;;;;;;;;;;;;10.15;92.58;100401.88;6247427;22;19947;-86
2022/07/12 11:47:10;;;;;;;;;;;;;;;10.42;94.37;100382.50;6275186;22;19918;-86
2022/07/12 11:49:36;;;;;;;;;;;;;;;10.07;92.72;100384.47;6273805;22;19990;-88
2022/07/12 11:52:04;;;;;;;;;;;;;;;10.25;94.68;100381.25;6274957;22;20309;-86
2022/07/12 11:54:30;;;;;;;;;;;;;;;10.02;92.17;100376.69;6272588;22;20224;-86
2022/07/12 11:57:07;;;;;;;;;;;;;;;10.32;93.56;100387.22;6274983;22;19911;-85
2022/07/12 11:59:32;;;;;;;;;;;;;;;10.04;92.32;100384.59;6274786;22;19946;-86
2022/07/12 12:02:04;;;;;;;;;;;;;;;10.24;93.10;100382.16;6274683;22;19934;-88
2022/07/12 12:04:30;;;;;;;;;;;;;;;10.16;92.62;100378.88;6275472;22;20109;-87
2022/07/12 12:06:57;;;;;;;;;;;;;;;10.07;92.69;100373.88;6274988;22;19957;-86
2022/07/12 12:09:23;;;;;;;;;;;;;;;10.18;93.71;100375.28;6273284;22;20006;-85
2022/07/12 12:11:50;;;;;;;;;;;;;;;9.99;92.88;100364.41;6275249;22;20307;-86
2022/07/12 12:14:16;;;;;;;;;;;;;;;10.22;93.95;100362.81;6275476;22;19947;-86
2022/07/12 12:16:41;;;;;;;;;;;;;;;10.05;92.60;100352.78;6250485;22;19949;-87
2022/07/12 12:19:10;;;;;;;;;;;;;;;10.22;94.07;100354.00;6250903;22;19915;-86
2022/07/12 12:21:35;;;;;;;;;;;;;;;10.03;92.63;100364.31;6277502;22;19915;-86
2022/07/12 12:24:10;;;;;;;;;;;;;;;10.44;94.64;100354.22;6276048;22;19919;-87
2022/07/12 12:26:35;;;;;;;;;;;;;;;10.05;92.66;100354.53;6277560;22;19919;-88
2022/07/12 12:29:02;;;;;;;;;;;;;;;10.27;94.63;100339.69;6277490;22;19990;-88
2022/07/12 12:31:27;;;;;;;;;;;;;;;10.11;92.77;100339.31;6249762;22;19921;-88
2022/07/12 12:33:56;;;;;;;;;;;;;;;10.30;94.38;100341.38;6275625;22;19915;-88
2022/07/12 12:36:40;;;;;;;;;;;;;;;10.20;92.56;100342.63;6276769;22;19911;-88
2022/07/12 12:39:05;;;;;;;;;;;;;;;10.09;93.20;100343.81;6275807;22;19911;-88
2022/07/12 12:41:38;;;;;;;;;;;;;;;10.18;93.31;100332.94;6250561;22;20346;-88
2022/07/12 12:44:04;;;;;;;;;;;;;;;10.25;91.86;100328.28;6249942;22;19926;-86
2022/07/12 12:46:45;;;;;;;;;;;;;;;10.29;92.14;100332.56;6250018;22;19982;-87
2022/07/12 12:49:25;;;;;;;;;;;;;;;10.21;91.05;100326.66;6276861;22;19912;-87
2022/07/12 12:51:58;;;;;;;;;;;;;;;10.41;93.43;100330.47;6277093;22;20227;-86
2022/07/12 12:54:30;;;;;;;;;;;;;;;10.12;91.70;100330.47;6210609;23;20003;-87
2022/07/12 12:56:55;;;;;;;;;;;;;;;10.41;92.95;100327.81;6212179;23;20430;-86
2022/07/12 12:59:21;;;;;;;;;;;;;;;10.03;90.83;100324.59;6211777;23;19916;-87
2022/07/12 13:01:46;;;;;;;;;;;;;;;10.32;92.62;100329.88;6211767;23;20126;-86
2022/07/12 13:04:12;;;;;;;;;;;;;;;10.12;91.38;100332.25;6213116;23;19919;-87
2022/07/12 13:06:37;;;;;;;;;;;;;;;10.38;92.57;100328.78;6213320;23;19923;-88
2022/07/12 13:09:05;;;;;;;;;;;;;;;10.22;90.86;100328.38;6211533;23;19966;-90
2022/07/12 13:11:40;;;;;;;;;;;;;;;10.25;91.77;100320.34;6212621;23;20379;-87
2022/07/12 13:14:05;;;;;;;;;;;;;;;10.30;91.93;100331.63;6212179;23;19923;-87
2022/07/12 13:16:30;;;;;;;;;;;;;;;10.36;92.07;100325.31;6212519;23;20320;-87
2022/07/12 13:18:56;;;;;;;;;;;;;;;10.26;92.30;100322.09;6244386;22;20109;-87
2022/07/12 13:21:21;;;;;;;;;;;;;;;9.99;92.45;100327.34;6248671;22;19919;-87
2022/07/12 13:23:46;;;;;;;;;;;;;;;10.05;91.99;100323.66;6274742;22;19923;-85
2022/07/12 13:26:14;;;;;;;;;;;;;;;10.08;91.00;100326.19;6276772;22;19918;-89
2022/07/12 13:28:40;;;;;;;;;;;;;;;10.16;90.72;100325.94;6277268;22;19911;-86
2022/07/12 13:31:12;;;;;;;;;;;;;;;10.14;89.36;100325.13;6277301;22;20310;-86
2022/07/12 13:33:38;;;;;;;;;;;;;;;10.18;91.20;100317.03;6249504;22;19926;-88
2022/07/12 13:36:03;;;;;;;;;;;;;;;9.88;89.77;100321.53;6249070;22;19915;-88
2022/07/12 13:38:29;;;;;;;;;;;;;;;10.33;91.54;100314.81;6274896;22;20323;-88
2022/07/12 13:40:54;;;;;;;;;;;;;;;9.97;89.00;100317.72;6249404;22;19915;-87
2022/07/12 13:43:19;;;;;;;;;;;;;;;10.31;91.11;100306.03;6276310;22;19911;-87
2022/07/12 13:45:45;;;;;;;;;;;;;;;10.00;88.90;100312.31;6276603;22;20372;-88
2022/07/12 13:48:11;;;;;;;;;;;;;;;10.27;90.97;100315.00;6248809;22;19926;-88
2022/07/12 13:50:37;;;;;;;;;;;;;;;10.14;88.64;100312.75;6248604;22;19915;-87
2022/07/12 13:53:02;;;;;;;;;;;;;;;10.39;90.68;100314.63;6246692;22;19998;-89
2022/07/12 13:55:28;;;;;;;;;;;;;;;10.08;89.55;100315.59;6249667;22;19911;-88
2022/07/12 13:57:54;;;;;;;;;;;;;;;10.27;91.00;100312.34;6248574;22;19914;-87
2022/07/12 14:00:19;;;;;;;;;;;;;;;10.10;90.49;100318.19;6249891;22;20330;-87
2022/07/12 14:02:47;;;;;;;;;;;;;;;9.95;90.50;100312.47;6249104;22;20022;-86
2022/07/12 14:05:13;;;;;;;;;;;;;;;9.97;90.22;100315.06;6246872;22;20312;-87
2022/07/12 14:07:39;;;;;;;;;;;;;;;10.05;89.68;100315.72;6248476;22;19917;-87
2022/07/12 14:10:04;;;;;;;;;;;;;;;10.07;89.64;100310.34;6274409;22;19986;-89
2022/07/12 14:12:30;;;;;;;;;;;;;;;9.95;89.98;100317.75;6274868;22;20381;-88
2022/07/12 14:15:14;;;;;;;;;;;;;;;10.03;89.54;100319.31;6246238;22;19915;-87
2022/07/12 14:17:47;;;;;;;;;;;;;;;9.95;88.55;100309.81;6275478;22;20037;-86
2022/07/12 14:20:14;;;;;;;;;;;;;;;10.06;90.26;100314.78;6247631;22;20071;-87
2022/07/12 14:22:39;;;;;;;;;;;;;;;9.81;88.23;100306.75;6272892;22;19923;-88
2022/07/12 14:25:06;;;;;;;;;;;;;;;10.17;90.52;100306.50;6246855;22;19915;-88
2022/07/12 14:27:35;;;;;;;;;;;;;;;9.92;88.39;100309.91;6274618;22;20346;-87
2022/07/12 14:30:00;;;;;;;;;;;;;;;9.97;90.40;100312.41;6247652;22;19915;-86
2022/07/12 14:32:26;;;;;;;;;;;;;;;9.85;88.22;100304.88;6247290;22;19985;-88
2022/07/12 14:34:51;;;;;;;;;;;;;;;10.20;90.17;100303.75;6273563;22;19973;-88
2022/07/12 14:37:16;;;;;;;;;;;;;;;9.98;88.18;100301.78;6248313;22;20006;-87
2022/07/12 14:39:42;;;;;;;;;;;;;;;10.21;90.53;100304.59;6274116;22;20228;-88
2022/07/12 14:42:08;;;;;;;;;;;;;;;9.85;88.31;100308.41;6247957;22;19915;-89
2022/07/12 14:44:33;;;;;;;;;;;;;;;10.20;90.52;100297.59;6275988;22;19922;-88
2022/07/12 14:46:58;;;;;;;;;;;;;;;10.11;88.94;100304.03;6247676;22;19919;-87
2022/07/12 14:49:24;;;;;;;;;;;;;;;10.24;90.75;100299.19;6274649;22;19922;-91
2022/07/12 14:51:49;;;;;;;;;;;;;;;9.64;88.74;100302.84;6247861;22;20021;-88
2022/07/12 14:57:32;;;;;;;;;;;;;;;10.00;87.24;100292.03;6254908;22;20477;-93
2022/07/12 14:59:57;;;;;;;;;;;;;;;10.05;87.72;100289.25;6273835;22;20827;-88
2022/07/12 15:02:23;;;;;;;;;;;;;;;9.95;88.49;100290.44;6273678;22;19915;-89
2022/07/12 15:04:54;;;;;;;;;;;;;;;9.84;88.35;100285.47;6248009;22;19923;-88
2022/07/12 15:07:19;;;;;;;;;;;;;;;9.89;87.97;100278.28;6247889;22;19912;-87
2022/07/12 15:09:45;;;;;;;;;;;;;;;9.76;87.74;100271.63;6245927;22;19911;-88
2022/07/12 15:12:10;;;;;;;;;;;;;;;9.85;88.69;100271.34;6248424;22;19925;-88
2022/07/12 15:14:39;;;;;;;;;;;;;;;9.74;87.53;100269.03;6274080;22;19915;-87
2022/07/12 15:17:04;;;;;;;;;;;;;;;9.88;89.40;100268.59;6272529;22;19911;-88
2022/07/12 15:19:37;;;;;;;;;;;;;;;9.72;88.06;100273.50;6245360;22;20216;-89
2022/07/12 15:22:02;;;;;;;;;;;;;;;9.93;89.42;100264.00;6247966;22;19911;-88
2022/07/12 15:24:28;;;;;;;;;;;;;;;9.87;87.88;100266.84;6273048;22;19922;-88
2022/07/12 15:26:53;;;;;;;;;;;;;;;10.07;89.87;100265.31;6248666;22;19911;-87
2022/07/12 15:29:19;;;;;;;;;;;;;;;9.67;87.62;100266.63;6248366;22;19915;-88
2022/07/12 15:31:44;;;;;;;;;;;;;;;10.04;89.22;100261.03;6248038;22;19912;-87
2022/07/12 15:34:09;;;;;;;;;;;;;;;9.75;86.88;100261.97;6248103;22;19994;-86
2022/07/12 15:36:35;;;;;;;;;;;;;;;10.04;89.33;100262.81;6274750;22;19911;-87
2022/07/12 15:39:00;;;;;;;;;;;;;;;9.92;87.60;100262.28;6245202;22;19989;-87
2022/07/12 15:41:25;;;;;;;;;;;;;;;10.13;89.91;100258.06;6272992;22;19937;-87
2022/07/12 15:43:51;;;;;;;;;;;;;;;9.97;87.75;100252.41;6247360;22;19917;-86
2022/07/12 15:46:17;;;;;;;;;;;;;;;10.19;90.02;100254.34;6275389;22;19911;-88
2022/07/12 15:48:43;;;;;;;;;;;;;;;9.81;88.94;100254.69;6275224;22;19957;-87
2022/07/12 15:51:09;;;;;;;;;;;;;;;10.16;91.33;100251.78;6247572;22;19915;-88
2022/07/12 15:53:34;;;;;;;;;;;;;;;10.14;89.21;100251.84;6246496;22;19911;-86
2022/07/12 15:56:00;;;;;;;;;;;;;;;10.30;90.99;100257.47;6275386;22;19911;-88
2022/07/12 15:58:28;;;;;;;;;;;;;;;10.02;89.70;100248.72;6247798;22;19907;-87
2022/07/12 16:00:53;;;;;;;;;;;;;;;10.38;91.18;100249.31;6275011;22;19990;-88
2022/07/12 16:03:19;;;;;;;;;;;;;;;10.12;89.47;100242.22;6247686;22;20610;-88
2022/07/12 16:05:44;;;;;;;;;;;;;;;10.20;91.08;100248.13;6274332;22;20209;-88
2022/07/12 16:08:10;;;;;;;;;;;;;;;10.00;89.46;100247.03;6246474;22;19915;-87
2022/07/12 16:10:35;;;;;;;;;;;;;;;10.23;91.01;100239.19;6247741;22;19918;-87
2022/07/12 16:13:00;;;;;;;;;;;;;;;10.14;90.11;100235.09;6248362;22;19915;-88
2022/07/12 16:15:26;;;;;;;;;;;;;;;10.25;91.77;100238.25;6248920;22;19954;-87
2022/07/12 16:17:51;;;;;;;;;;;;;;;10.29;91.40;100234.56;6248742;22;19907;-88
2022/07/12 16:20:17;;;;;;;;;;;;;;;10.23;92.80;100240.09;6248687;22;19919;-89
2022/07/12 16:22:42;;;;;;;;;;;;;;;10.13;91.73;100243.94;6248512;22;19968;-87
2022/07/12 16:25:10;;;;;;;;;;;;;;;10.12;91.61;100243.09;6274265;22;19912;-92
2022/07/12 16:27:35;;;;;;;;;;;;;;;9.98;91.59;100237.38;6274923;22;19926;-88
2022/07/12 16:30:01;;;;;;;;;;;;;;;9.99;91.17;100234.69;6246251;22;19915;-88
2022/07/12 16:32:43;;;;;;;;;;;;;;;;;;;;;
2022/07/12 16:35:10;;;;;;;;;;;;;;;10.06;90.85;100232.69;6275336;22;19990;-88
2022/07/12 16:37:35;;;;;;;;;;;;;;;10.24;92.15;100236.50;6275094;22;19914;-90
2022/07/12 16:40:01;;;;;;;;;;;;;;;9.99;91.02;100234.69;6273350;22;19915;-88
2022/07/12 16:42:26;;;;;;;;;;;;;;;10.21;92.55;100233.97;6247680;22;19907;-88
2022/07/12 16:44:51;;;;;;;;;;;;;;;9.97;90.51;100235.66;6248275;22;19922;-88
2022/07/12 16:47:17;;;;;;;;;;;;;;;10.33;92.02;100230.06;6248271;22;20220;-89
2022/07/12 16:49:42;;;;;;;;;;;;;;;10.04;89.91;100231.03;6248221;22;20282;-88
2022/07/12 16:52:07;;;;;;;;;;;;;;;10.45;92.14;100220.81;6275062;22;19911;-88
2022/07/12 16:54:34;;;;;;;;;;;;;;;10.18;90.48;100232.28;6245747;22;19921;-89
2022/07/12 16:56:59;;;;;;;;;;;;;;;10.47;92.35;100226.94;6248032;22;19911;-89
2022/07/12 16:59:25;;;;;;;;;;;;;;;10.23;90.68;100233.91;6248734;22;19986;-88
2022/07/12 17:01:50;;;;;;;;;;;;;;;10.48;92.19;100229.53;6249713;22;19943;-89
2022/07/12 17:04:15;;;;;;;;;;;;;;;10.22;90.23;100230.41;6277455;22;19912;-88
2022/07/12 17:06:41;;;;;;;;;;;;;;;10.53;92.69;100226.72;6250452;22;19950;-89
2022/07/12 17:09:06;;;;;;;;;;;;;;;10.37;91.03;100221.09;6276042;22;19922;-89
2022/07/12 17:11:34;;;;;;;;;;;;;;;10.48;92.89;100226.88;6277210;22;19946;-89
2022/07/12 17:14:00;;;;;;;;;;;;;;;10.27;92.06;100231.09;6239312;22;19934;-89
2022/07/12 17:16:25;;;;;;;;;;;;;;;10.47;93.45;100226.94;6250292;22;19919;-88
2022/07/12 17:18:51;;;;;;;;;;;;;;;10.50;92.11;100227.69;6274686;22;19911;-89
2022/07/12 17:21:19;;;;;;;;;;;;;;;10.47;92.93;100221.63;6275172;22;20343;-88
2022/07/12 17:23:44;;;;;;;;;;;;;;;10.30;92.63;100228.34;6273714;22;19916;-88
2022/07/12 17:26:09;;;;;;;;;;;;;;;10.30;92.99;100231.00;6275302;22;19921;-88
2022/07/12 17:28:35;;;;;;;;;;;;;;;10.33;92.63;100230.91;6275775;22;20391;-89
2022/07/12 17:31:32;;;;;;;;;;;;;;;10.26;92.74;100232.03;6277225;22;19915;-89
2022/07/12 17:34:26;;;;;;;;;;;;;;;10.39;93.51;100229.84;6203746;23;19912;-90
2022/07/12 17:37:20;;;;;;;;;;;;;;;10.27;91.95;100239.03;6175181;23;19958;-90
2022/07/12 17:39:46;;;;;;;;;;;;;;;10.43;93.60;100235.91;6184700;23;20324;-90
2022/07/12 17:42:11;;;;;;;;;;;;;;;10.20;91.74;100234.03;6213074;23;19964;-90
2022/07/12 17:44:36;;;;;;;;;;;;;;;10.56;93.26;100231.88;6188188;23;19969;-89
2022/07/12 17:47:02;;;;;;;;;;;;;;;10.35;91.69;100234.41;6189174;23;19912;-88
2022/07/12 17:49:27;;;;;;;;;;;;;;;10.50;92.82;100245.38;6213395;23;20243;-87
2022/07/12 17:52:14;;;;;;;;;;;;;;;;;;;;;
2022/07/12 17:54:40;;;;;;;;;;;;;;;10.45;92.16;100236.69;6211718;23;20011;-89
2022/07/12 17:57:05;;;;;;;;;;;;;;;10.54;92.66;100233.75;6213233;23;20356;-89
2022/07/12 17:59:30;;;;;;;;;;;;;;;10.32;91.24;100225.63;6271408;22;19911;-90
2022/07/12 18:01:56;;;;;;;;;;;;;;;10.39;93.04;100228.97;6276683;22;19911;-88
2022/07/12 18:04:24;;;;;;;;;;;;;;;10.20;91.67;100231.38;6275461;22;19968;-87
2022/07/12 18:07:19;;;;;;;;;;;;;;;10.40;92.82;100236.00;6275239;22;20316;-88
2022/07/12 18:09:50;;;;;;;;;;;;;;;10.14;90.95;100228.00;6122148;23;19998;-88
2022/07/12 18:15:06;;;;;;;;;;;;;;;10.29;91.09;100226.63;6122563;23;19983;-88
2022/07/12 18:20:16;;;;;;;;;;;;;;;10.21;92.16;100228.69;6246000;23;20251;-90
2022/07/12 18:22:51;;;;;;;;;;;;;;;10.17;91.20;100224.41;6246084;23;19915;-88
2022/07/12 18:25:16;;;;;;;;;;;;;;;10.21;92.53;100236.63;6218358;23;19908;-89
2022/07/12 18:27:41;;;;;;;;;;;;;;;10.12;90.80;100235.16;6244045;23;19911;-89
2022/07/12 18:30:07;;;;;;;;;;;;;;;10.41;92.73;100233.31;6245764;23;19978;-89
2022/07/12 18:32:32;;;;;;;;;;;;;;;10.15;90.21;100234.19;6246035;23;20445;-89
2022/07/12 18:34:57;;;;;;;;;;;;;;;10.34;92.56;100235.31;6244616;23;19919;-89
2022/07/12 18:37:23;;;;;;;;;;;;;;;10.20;90.42;100234.88;6219377;23;20247;-90
2022/07/12 18:39:48;;;;;;;;;;;;;;;10.44;92.45;100229.69;6245208;23;20038;-88
2022/07/12 18:42:14;;;;;;;;;;;;;;;10.22;90.60;100232.19;6246031;23;20239;-89
2022/07/12 18:44:39;;;;;;;;;;;;;;;10.36;92.34;100236.13;6219063;23;19943;-88
2022/07/12 18:47:14;;;;;;;;;;;;;;;;;;;;;
2022/07/12 18:52:11;;;;;;;;;;;;;;;10.32;91.92;100234.50;6275198;22;19957;-89
2022/07/12 18:54:36;;;;;;;;;;;;;;;10.32;91.58;100228.28;6241650;22;19920;-88
2022/07/12 18:57:19;;;;;;;;;;;;;;;10.44;92.15;100227.91;6243531;23;20414;-87
2022/07/12 18:59:45;;;;;;;;;;;;;;;10.25;90.82;100232.09;6243761;23;19939;-88
2022/07/12 19:02:19;;;;;;;;;;;;;;;10.46;92.98;100225.19;6244848;23;20324;-87
2022/07/12 19:04:45;;;;;;;;;;;;;;;10.23;91.05;100223.31;6244830;23;19916;-86
2022/07/12 19:07:10;;;;;;;;;;;;;;;10.47;93.52;100226.94;6243921;23;20282;-88
2022/07/12 19:09:35;;;;;;;;;;;;;;;10.30;91.17;100235.44;6241818;23;19935;-86
2022/07/12 19:12:00;;;;;;;;;;;;;;;10.47;93.08;100226.94;6243637;23;19943;-87
2022/07/12 19:14:29;;;;;;;;;;;;;;;10.23;91.75;100229.50;6243584;23;19998;-87
2022/07/12 19:16:55;;;;;;;;;;;;;;;10.39;93.07;100234.25;6244314;23;20315;-88
2022/07/12 19:19:20;;;;;;;;;;;;;;;10.45;91.55;100226.09;6243328;23;19912;-88
2022/07/12 19:21:51;;;;;;;;;;;;;;;10.43;92.50;100235.91;6245222;23;20324;-88
2022/07/12 19:24:18;;;;;;;;;;;;;;;10.45;91.94;100229.66;6242455;23;20231;-87
2022/07/12 19:26:44;;;;;;;;;;;;;;;10.39;91.59;100234.25;6245856;23;19911;-88
2022/07/12 19:29:09;;;;;;;;;;;;;;;10.43;92.21;100235.91;6245404;23;19915;-89
2022/07/12 19:31:35;;;;;;;;;;;;;;;10.31;90.99;100239.81;6244311;23;19916;-88
2022/07/12 19:34:00;;;;;;;;;;;;;;;10.48;92.34;100237.47;6243613;23;19961;-89
2022/07/12 19:36:26;;;;;;;;;;;;;;;10.33;90.64;100251.25;6244302;23;19939;-88
2022/07/12 19:38:51;;;;;;;;;;;;;;;10.59;92.75;100246.81;6242492;23;19912;-87
2022/07/12 19:41:16;;;;;;;;;;;;;;;10.44;90.70;100250.88;6245868;23;19919;-88
2022/07/12 19:43:42;;;;;;;;;;;;;;;10.54;92.60;100255.78;6269568;22;19918;-89
2022/07/12 19:46:08;;;;;;;;;;;;;;;10.48;90.49;100256.03;6245333;23;19916;-86